createdAt,value
2017-05-08T00:06:27.063Z,8.3
2017-05-08T00:16:42.565Z,8.4
2017-05-08T00:26:58.193Z,8.3
2017-05-08T00:37:12.771Z,8.3
2017-05-08T00:47:26.508Z,8.3
2017-05-08T00:57:40.503Z,8.3
2017-05-08T01:07:55.271Z,8.3
2017-05-08T01:18:09.878Z,8.4
2017-05-08T01:28:24.081Z,8.4
2017-05-08T01:38:39.461Z,8.4
2017-05-08T01:48:53.655Z,8.6
2017-05-08T01:59:07.845Z,8.6
2017-05-08T02:09:23.394Z,8.6
2017-05-08T02:19:37.596Z,8.6
2017-05-08T02:29:53.034Z,8.6
2017-05-08T02:40:07.790Z,8.6
2017-05-08T02:50:23.142Z,8.6
2017-05-08T03:00:36.886Z,8.7
2017-05-08T03:10:50.642Z,8.7
2017-05-08T03:21:05.667Z,8.8
2017-05-08T03:31:21.291Z,8.9
2017-05-08T03:41:35.313Z,8.9
2017-05-08T03:51:49.878Z,8.8
2017-05-08T04:02:05.532Z,8.9
2017-05-08T04:12:20.287Z,9
2017-05-08T04:22:34.167Z,9
2017-05-08T04:32:48.184Z,9
2017-05-08T04:43:01.939Z,8.9
2017-05-08T04:53:16.694Z,8.7
2017-05-08T05:03:31.816Z,8.3
2017-05-08T05:13:45.863Z,8.2
2017-05-08T05:23:59.897Z,8.1
2017-05-08T05:34:15.287Z,7.9
2017-05-08T05:44:30.445Z,7.9
2017-05-08T05:54:45.729Z,8
2017-05-08T06:05:01.082Z,7.9
2017-05-08T06:15:16.205Z,8
2017-05-08T06:25:31.559Z,8.3
2017-05-08T06:35:46.266Z,8.3
2017-05-08T06:46:01.351Z,8.3
2017-05-08T06:56:16.290Z,8.5
2017-05-08T07:06:31.527Z,8.5
2017-05-08T07:16:47.248Z,8.6
2017-05-08T07:27:02.641Z,8.8
2017-05-08T07:37:17.007Z,9
2017-05-08T07:47:32.022Z,9.3
2017-05-08T07:57:45.810Z,9.4
2017-05-08T08:08:00.458Z,9.4
2017-05-08T08:18:15.429Z,9.6
2017-05-08T08:28:30.135Z,9.8
2017-05-08T08:38:44.201Z,10
2017-05-08T08:48:59.160Z,9.8
2017-05-08T08:59:12.956Z,10
2017-05-08T09:09:27.445Z,10
2017-05-08T09:19:41.431Z,10.3
2017-05-08T09:29:56.624Z,10.1
2017-05-08T09:40:12.215Z,10.7
2017-05-08T09:50:27.035Z,10.8
2017-05-08T10:00:42.097Z,10.9
2017-05-08T10:10:56.587Z,10.8
2017-05-08T10:21:12.206Z,10.5
2017-05-08T10:31:27.483Z,9.9
2017-05-08T10:41:41.348Z,10.2
2017-05-08T10:51:56.716Z,11.4
2017-05-08T11:02:11.310Z,12.3
2017-05-08T11:12:27.121Z,11.4
2017-05-08T11:22:42.036Z,11.2
2017-05-08T11:32:56.226Z,11
2017-05-08T11:43:10.186Z,10.9
2017-05-08T11:53:24.688Z,10.6
2017-05-08T12:03:39.564Z,10.7
2017-05-08T12:13:53.502Z,10.9
2017-05-08T12:24:08.964Z,10.8
2017-05-08T12:34:23.466Z,10.9
2017-05-08T12:44:38.127Z,10.3
2017-05-08T12:54:53.651Z,10.5
2017-05-08T13:05:08.039Z,10.5
2017-05-08T13:15:23.130Z,10.5
2017-05-08T13:25:37.752Z,10.9
2017-05-08T13:35:52.027Z,11.5
2017-05-08T13:46:07.446Z,11.3
2017-05-08T13:56:21.454Z,10.9
2017-05-08T14:06:35.633Z,10.5
2017-05-08T14:16:51.345Z,11.4
2017-05-08T14:27:05.266Z,11.5
2017-05-08T14:37:19.081Z,12.7
2017-05-08T14:47:34.321Z,15.5
2017-05-08T14:57:48.239Z,12.8
2017-05-08T15:08:03.467Z,13.9
2017-05-08T15:18:18.968Z,14.7
2017-05-08T15:28:34.090Z,14.7
2017-05-08T15:38:48.505Z,14.8
2017-05-08T15:49:02.933Z,15.4
2017-05-08T15:59:18.310Z,14.5
2017-05-08T16:09:33.212Z,15.6
2017-05-08T16:19:47.152Z,13.9
2017-05-08T16:30:01.608Z,13.1
2017-05-08T16:40:16.725Z,13.8
2017-05-08T16:50:30.738Z,13.7
2017-05-08T17:00:45.279Z,14.2
2017-05-08T17:11:00.239Z,14.5
2017-05-08T17:21:15.226Z,13.9
2017-05-08T17:31:29.805Z,12.9
2017-05-08T17:41:43.731Z,12.8
2017-05-08T17:51:58.370Z,12.5
2017-05-08T18:02:13.186Z,12.6
2017-05-08T18:12:28.529Z,12.3
2017-05-08T18:22:42.630Z,11.7
2017-05-08T18:32:57.325Z,11.3
2017-05-08T18:43:12.012Z,11
2017-05-08T18:53:27.168Z,11
2017-05-08T19:03:42.188Z,10.8
2017-05-08T19:13:57.282Z,10.5
2017-05-08T19:24:12.981Z,10.2
2017-05-08T19:34:27.157Z,10.2
2017-05-08T19:44:41.692Z,9.8
2017-05-08T19:54:57.308Z,9.6
2017-05-08T20:05:11.767Z,9.2
2017-05-08T20:15:26.290Z,9.1
2017-05-08T20:25:40.144Z,9.2
2017-05-08T20:35:55.462Z,8.8
2017-05-08T20:46:09.201Z,8.9
2017-05-08T20:56:23.161Z,8.8
2017-05-08T21:06:37.803Z,8.8
2017-05-08T21:16:51.785Z,8.5
2017-05-08T21:27:05.596Z,8.4
2017-05-08T21:37:19.870Z,8.2
2017-05-08T21:47:33.996Z,7.7
2017-05-08T21:57:47.730Z,7.2
2017-05-08T22:08:01.702Z,7
2017-05-08T22:18:15.812Z,6.8
2017-05-08T22:28:30.419Z,6.3
2017-05-08T22:38:45.961Z,6.2
2017-05-08T22:48:59.694Z,5.7
2017-05-08T22:59:14.277Z,5.6
2017-05-08T23:09:29.879Z,5.7
2017-05-08T23:19:45.141Z,5.9
2017-05-08T23:30:00.355Z,5.5
2017-05-08T23:40:14.968Z,5.4
2017-05-08T23:50:29.293Z,5.4
